createdAt,value
2018-11-10T00:00:19.344Z,15.33
2018-11-10T00:02:49.396Z,15.35
2018-11-10T00:05:19.439Z,15.38
2018-11-10T00:07:48.558Z,15.41
2018-11-10T00:10:18.374Z,15.47
2018-11-10T00:12:48.140Z,15.54
2018-11-10T00:15:17.381Z,15.63
2018-11-10T00:17:46.572Z,15.73
2018-11-10T00:20:15.589Z,15.86
2018-11-10T00:22:45.319Z,15.97
2018-11-10T00:25:15.060Z,16.07
2018-11-10T00:27:45.758Z,16.15
2018-11-10T00:30:21.703Z,16.25
2018-11-10T00:32:51.268Z,16.31
2018-11-10T00:35:20.842Z,16.41
2018-11-10T00:37:50.162Z,16.45
2018-11-10T00:40:19.457Z,16.48
2018-11-10T00:42:48.968Z,16.53
2018-11-10T00:45:18.280Z,16.56
2018-11-10T00:47:47.658Z,16.58
2018-11-10T00:50:16.747Z,16.61
2018-11-10T00:52:45.807Z,16.62
2018-11-10T00:55:15.843Z,16.65
2018-11-10T00:57:44.899Z,16.69
2018-11-10T01:00:14.323Z,16.70
2018-11-10T01:02:44.322Z,16.74
2018-11-10T01:05:13.374Z,16.74
2018-11-10T01:07:42.648Z,16.76
2018-11-10T01:10:13.045Z,16.81
2018-11-10T01:12:42.458Z,16.84
2018-11-10T01:15:13.270Z,16.87
2018-11-10T01:17:43.039Z,16.89
2018-11-10T01:20:12.913Z,16.91
2018-11-10T01:22:41.952Z,16.94
2018-11-10T01:25:11.676Z,16.96
2018-11-10T01:27:40.832Z,16.97
2018-11-10T01:30:13.445Z,16.97
2018-11-10T01:32:43.320Z,16.95
2018-11-10T01:35:12.505Z,16.92
2018-11-10T01:37:41.580Z,16.92
2018-11-10T01:40:12.310Z,16.93
2018-11-10T01:42:42.030Z,16.91
2018-11-10T01:45:13.912Z,16.91
2018-11-10T01:47:43.749Z,16.91
2018-11-10T01:50:12.905Z,16.91
2018-11-10T01:52:42.332Z,16.90
2018-11-10T01:55:12.089Z,16.90
2018-11-10T01:57:42.307Z,16.87
2018-11-10T02:00:15.287Z,16.82
2018-11-10T02:02:45.124Z,16.83
2018-11-10T02:05:14.483Z,16.81
2018-11-10T02:07:43.564Z,16.77
2018-11-10T02:10:13.111Z,16.71
2018-11-10T02:12:42.918Z,16.69
2018-11-10T02:15:15.881Z,16.65
2018-11-10T02:17:45.220Z,16.63
2018-11-10T02:20:15.108Z,16.61
2018-11-10T02:22:44.756Z,16.58
2018-11-10T02:25:14.038Z,16.55
2018-11-10T02:27:43.262Z,16.53
2018-11-10T02:30:13.643Z,16.51
2018-11-10T02:32:42.921Z,16.52
2018-11-10T02:35:12.409Z,16.57
2018-11-10T02:37:41.844Z,16.64
2018-11-10T02:40:13.701Z,16.74
2018-11-10T02:42:44.051Z,16.88
2018-11-10T02:45:14.332Z,17.02
2018-11-10T02:47:44.243Z,17.17
2018-11-10T02:50:13.467Z,17.27
2018-11-10T02:52:42.646Z,17.39
2018-11-10T02:55:12.067Z,17.49
2018-11-10T02:57:41.645Z,17.57
2018-11-10T03:00:12.223Z,17.68
2018-11-10T03:02:41.300Z,17.76
2018-11-10T03:05:10.882Z,17.83
2018-11-10T03:07:40.028Z,17.89
2018-11-10T03:10:10.519Z,17.94
2018-11-10T03:12:40.568Z,17.99
2018-11-10T03:15:10.748Z,18.03
2018-11-10T03:17:39.858Z,18.09
2018-11-10T03:20:12.723Z,18.15
2018-11-10T03:22:42.073Z,18.22
2018-11-10T03:25:11.542Z,18.25
2018-11-10T03:27:40.828Z,18.29
2018-11-10T03:30:10.044Z,18.35
2018-11-10T03:32:39.127Z,18.38
2018-11-10T03:35:08.984Z,18.41
2018-11-10T03:37:38.142Z,18.42
2018-11-10T03:40:08.926Z,18.43
2018-11-10T03:42:38.375Z,18.43
2018-11-10T03:45:08.947Z,18.42
2018-11-10T03:47:38.123Z,18.42
2018-11-10T03:50:08.260Z,18.41
2018-11-10T03:52:37.344Z,18.41
2018-11-10T03:55:07.520Z,18.39
2018-11-10T03:57:36.654Z,18.37
2018-11-10T04:00:07.212Z,18.38
2018-11-10T04:02:36.328Z,18.38
2018-11-10T04:05:05.726Z,18.40
2018-11-10T04:07:35.005Z,18.40
2018-11-10T04:10:04.525Z,18.42
2018-11-10T04:12:33.649Z,18.42
2018-11-10T04:15:02.738Z,18.44
2018-11-10T04:17:31.745Z,18.44
2018-11-10T04:20:00.972Z,18.46
2018-11-10T04:22:34.050Z,18.46
2018-11-10T04:25:04.183Z,18.46
2018-11-10T04:27:34.036Z,18.46
2018-11-10T04:30:04.331Z,18.47
2018-11-10T04:32:33.867Z,18.48
2018-11-10T04:35:03.001Z,18.48
2018-11-10T04:37:32.152Z,18.47
2018-11-10T04:40:01.935Z,18.48
2018-11-10T04:42:31.812Z,18.49
2018-11-10T04:45:01.117Z,18.50
2018-11-10T04:47:30.272Z,18.50
2018-11-10T04:49:59.386Z,18.51
2018-11-10T04:52:28.500Z,18.51
2018-11-10T04:54:57.554Z,18.51
2018-11-10T04:57:26.602Z,18.54
2018-11-10T04:59:55.663Z,18.53
2018-11-10T05:02:24.767Z,18.54
2018-11-10T05:04:53.980Z,18.49
2018-11-10T05:07:23.624Z,18.46
2018-11-10T05:09:52.719Z,18.42
2018-11-10T05:12:21.962Z,18.39
2018-11-10T05:14:51.110Z,18.33
2018-11-10T05:17:20.259Z,18.29
2018-11-10T05:19:49.372Z,18.23
2018-11-10T05:22:18.385Z,18.17
2018-11-10T05:24:47.375Z,18.09
2018-11-10T05:27:16.410Z,18.05
2018-11-10T05:29:45.442Z,17.98
2018-11-10T05:32:14.502Z,17.91
2018-11-10T05:34:43.536Z,17.86
2018-11-10T05:37:12.648Z,17.79
2018-11-10T05:39:42.846Z,17.72
2018-11-10T05:42:11.925Z,17.66
2018-11-10T05:44:41.046Z,17.60
2018-11-10T05:47:10.056Z,17.55
2018-11-10T05:49:39.173Z,17.49
2018-11-10T05:52:08.332Z,17.44
2018-11-10T05:54:37.374Z,17.39
2018-11-10T05:57:06.504Z,17.36
2018-11-10T05:59:35.672Z,17.31
2018-11-10T06:02:06.302Z,17.27
2018-11-10T06:04:36.228Z,17.24
2018-11-10T06:07:06.478Z,17.23
2018-11-10T06:09:35.764Z,17.21
2018-11-10T06:12:05.673Z,17.19
2018-11-10T06:14:34.851Z,17.17
2018-11-10T06:17:04.022Z,17.15
2018-11-10T06:19:33.217Z,17.13
2018-11-10T06:22:02.424Z,17.11
2018-11-10T06:24:31.518Z,17.11
2018-11-10T06:27:00.774Z,17.09
2018-11-10T06:29:29.897Z,17.07
2018-11-10T06:31:59.104Z,17.05
2018-11-10T06:34:28.397Z,17.03
2018-11-10T06:36:57.624Z,17.03
2018-11-10T06:39:26.667Z,17.01
2018-11-10T06:41:55.752Z,16.99
2018-11-10T06:44:24.825Z,17.00
2018-11-10T06:46:54.006Z,16.98
2018-11-10T06:49:24.149Z,16.98
2018-11-10T06:51:54.066Z,16.99
2018-11-10T06:54:23.141Z,16.97
2018-11-10T06:56:52.607Z,16.99
2018-11-10T06:59:21.685Z,16.98
2018-11-10T07:01:50.821Z,16.99
2018-11-10T07:04:19.950Z,16.98
2018-11-10T07:06:49.233Z,16.99
2018-11-10T07:09:20.384Z,17.00
2018-11-10T07:11:49.988Z,17.00
2018-11-10T07:14:19.347Z,17.01
2018-11-10T07:16:48.513Z,17.01
2018-11-10T07:19:24.172Z,17.02
2018-11-10T07:21:53.400Z,17.04
2018-11-10T07:24:22.499Z,17.04
2018-11-10T07:26:51.803Z,17.05
2018-11-10T07:29:20.933Z,17.07
2018-11-10T07:31:50.172Z,17.09
2018-11-10T07:34:19.586Z,17.11
2018-11-10T07:36:48.703Z,17.13
2018-11-10T07:39:18.109Z,17.17
2018-11-10T07:41:47.300Z,17.20
2018-11-10T07:44:16.471Z,17.20
2018-11-10T07:46:46.088Z,17.23
2018-11-10T07:49:15.427Z,17.23
2018-11-10T07:51:45.349Z,17.26
2018-11-10T07:54:14.878Z,17.27
2018-11-10T07:56:44.747Z,17.30
2018-11-10T07:59:13.894Z,17.33
2018-11-10T08:01:43.354Z,17.33
2018-11-10T08:04:15.121Z,17.35
2018-11-10T08:06:44.325Z,17.38
2018-11-10T08:09:13.584Z,17.41
2018-11-10T08:11:43.038Z,17.44
2018-11-10T08:14:12.585Z,17.49
2018-11-10T08:16:42.216Z,17.51
2018-11-10T08:19:11.440Z,17.54
2018-11-10T08:21:40.885Z,17.60
2018-11-10T08:24:10.113Z,17.62
2018-11-10T08:26:39.494Z,17.68
2018-11-10T08:29:08.771Z,17.71
2018-11-10T08:31:37.924Z,17.74
2018-11-10T08:34:07.143Z,17.79
2018-11-10T08:36:36.421Z,17.82
2018-11-10T08:39:08.956Z,17.85
2018-11-10T08:41:38.038Z,17.88
2018-11-10T08:44:07.996Z,17.89
2018-11-10T08:46:40.207Z,17.91
2018-11-10T08:49:10.715Z,17.92
2018-11-10T08:51:40.525Z,17.93
2018-11-10T08:54:09.671Z,17.95
2018-11-10T08:56:39.429Z,17.95
2018-11-10T08:59:08.922Z,17.94
2018-11-10T09:01:38.112Z,17.94
2018-11-10T09:04:07.939Z,17.95
2018-11-10T09:06:38.451Z,17.96
2018-11-10T09:09:13.039Z,17.96
2018-11-10T09:11:43.748Z,17.97
2018-11-10T09:14:14.262Z,17.98
2018-11-10T09:16:44.541Z,18.01
2018-11-10T09:19:14.977Z,18.02
2018-11-10T09:21:45.252Z,18.05
2018-11-10T09:24:14.698Z,18.04
2018-11-10T09:26:44.610Z,18.08
2018-11-10T09:29:14.179Z,18.09
2018-11-10T09:31:44.738Z,18.09
2018-11-10T09:34:13.943Z,18.08
2018-11-10T09:36:43.714Z,18.11
2018-11-10T09:39:13.385Z,18.12
2018-11-10T09:41:42.853Z,18.14
2018-11-10T09:44:12.285Z,18.17
2018-11-10T09:46:41.697Z,18.19
2018-11-10T09:49:11.665Z,18.20
2018-11-10T09:51:41.060Z,18.23
2018-11-10T09:54:10.975Z,18.25
2018-11-10T09:56:40.249Z,18.25
2018-11-10T09:59:09.620Z,18.25
2018-11-10T10:01:39.229Z,18.26
2018-11-10T10:04:10.338Z,18.28
2018-11-10T10:06:39.920Z,18.32
2018-11-10T10:09:11.037Z,18.35
2018-11-10T10:11:41.233Z,18.38
2018-11-10T10:14:11.625Z,18.40
2018-11-10T10:16:41.025Z,18.38
2018-11-10T10:19:10.960Z,18.35
2018-11-10T10:21:40.192Z,18.36
2018-11-10T10:24:09.556Z,18.37
2018-11-10T10:26:38.956Z,18.36
2018-11-10T10:29:08.463Z,18.34
2018-11-10T10:31:37.944Z,18.32
2018-11-10T10:34:07.290Z,18.30
2018-11-10T10:36:36.694Z,18.29
2018-11-10T10:39:08.619Z,18.29
2018-11-10T10:41:39.103Z,18.28
2018-11-10T10:44:09.431Z,18.28
2018-11-10T10:46:38.823Z,18.26
2018-11-10T10:49:08.178Z,18.22
2018-11-10T10:51:37.381Z,18.18
2018-11-10T10:54:06.781Z,18.15
2018-11-10T10:56:35.984Z,18.11
2018-11-10T10:59:06.318Z,18.06
2018-11-10T11:01:40.644Z,18.01
2018-11-10T11:04:14.825Z,17.96
2018-11-10T11:06:43.936Z,17.93
2018-11-10T11:09:13.131Z,17.89
2018-11-10T11:11:42.462Z,17.86
2018-11-10T11:14:11.569Z,17.84
2018-11-10T11:16:40.747Z,17.83
2018-11-10T11:19:10.816Z,17.82
2018-11-10T11:21:39.904Z,17.81
2018-11-10T11:24:08.957Z,17.81
2018-11-10T11:26:38.053Z,17.81
2018-11-10T11:29:07.216Z,17.79
2018-11-10T11:31:36.928Z,17.81
2018-11-10T11:34:06.292Z,17.81
2018-11-10T11:36:36.638Z,17.79
2018-11-10T11:39:10.151Z,17.75
2018-11-10T11:41:55.303Z,17.71
2018-11-10T11:44:25.325Z,17.67
2018-11-10T11:46:54.645Z,17.64
2018-11-10T11:49:24.311Z,17.62
2018-11-10T11:51:53.519Z,17.62
2018-11-10T11:54:22.761Z,17.59
2018-11-10T11:56:52.261Z,17.60
2018-11-10T11:59:21.592Z,17.59
2018-11-10T12:01:50.655Z,17.59
2018-11-10T12:04:19.794Z,17.61
2018-11-10T12:06:49.408Z,17.62
2018-11-10T12:09:18.515Z,17.62
2018-11-10T12:11:47.527Z,17.65
2018-11-10T12:14:16.536Z,17.65
2018-11-10T12:16:46.321Z,17.67
2018-11-10T12:19:15.340Z,17.69
2018-11-10T12:21:44.476Z,17.73
2018-11-10T12:24:13.472Z,17.76
2018-11-10T12:26:42.509Z,17.83
2018-11-10T12:29:11.512Z,17.89
2018-11-10T12:31:40.625Z,17.95
2018-11-10T12:34:09.676Z,18.00
2018-11-10T12:36:38.765Z,18.10
2018-11-10T12:39:09.008Z,18.17
2018-11-10T12:41:38.159Z,18.22
2018-11-10T12:44:07.492Z,18.28
2018-11-10T12:46:36.542Z,18.36
2018-11-10T12:49:05.986Z,18.42
2018-11-10T12:51:34.948Z,18.45
2018-11-10T12:54:04.885Z,18.49
2018-11-10T12:56:33.923Z,18.51
2018-11-10T12:59:03.335Z,18.52
2018-11-10T13:01:32.371Z,18.54
2018-11-10T13:04:01.896Z,18.58
2018-11-10T13:06:30.950Z,18.61
2018-11-10T13:08:59.951Z,18.62
2018-11-10T13:11:29.133Z,18.65
2018-11-10T13:13:58.106Z,18.66
2018-11-10T13:16:27.206Z,18.68
2018-11-10T13:18:56.128Z,18.68
2018-11-10T13:21:25.173Z,18.73
2018-11-10T13:23:54.517Z,18.74
2018-11-10T13:26:23.560Z,18.76
2018-11-10T13:28:52.715Z,18.75
2018-11-10T13:31:21.972Z,18.77
2018-11-10T13:33:50.915Z,18.78
2018-11-10T13:36:19.976Z,18.81
2018-11-10T13:38:49.033Z,18.85
2018-11-10T13:41:18.209Z,18.87
2018-11-10T13:43:47.368Z,18.88
2018-11-10T13:46:16.297Z,18.91
2018-11-10T13:48:52.075Z,18.94
2018-11-10T13:51:21.279Z,18.93
2018-11-10T13:53:50.073Z,18.95
2018-11-10T13:56:19.164Z,18.94
2018-11-10T13:58:48.159Z,18.92
2018-11-10T14:01:17.690Z,18.92
2018-11-10T14:03:46.683Z,18.92
2018-11-10T14:06:15.705Z,18.91
2018-11-10T14:08:44.759Z,18.91
2018-11-10T14:16:11.493Z,18.63
2018-11-10T14:18:40.717Z,18.64
2018-11-10T14:21:09.875Z,18.66
2018-11-10T14:23:38.912Z,18.72
2018-11-10T14:26:07.999Z,18.75
2018-11-10T14:28:36.986Z,18.76
2018-11-10T14:31:06.206Z,18.78
2018-11-10T14:33:35.369Z,18.83
2018-11-10T14:36:04.503Z,18.84
2018-11-10T14:38:33.712Z,18.86
2018-11-10T14:41:02.817Z,18.84
2018-11-10T14:43:32.049Z,18.86
2018-11-10T14:46:01.076Z,18.87
2018-11-10T14:48:30.108Z,18.91
2018-11-10T14:50:59.209Z,18.93
2018-11-10T14:53:28.197Z,18.96
2018-11-10T14:55:57.473Z,18.97
2018-11-10T14:58:26.530Z,18.95
2018-11-10T15:00:55.564Z,18.93
2018-11-10T15:03:24.605Z,18.92
2018-11-10T15:05:53.643Z,18.89
2018-11-10T15:08:22.680Z,18.83
2018-11-10T15:10:51.688Z,18.76
2018-11-10T15:13:20.813Z,18.72
2018-11-10T15:15:49.827Z,18.64
2018-11-10T15:18:18.939Z,18.56
2018-11-10T15:20:47.860Z,18.51
2018-11-10T15:23:16.868Z,18.46
2018-11-10T15:25:45.952Z,18.43
2018-11-10T15:28:15.101Z,18.39
2018-11-10T15:30:44.208Z,18.38
2018-11-10T15:33:13.375Z,18.34
2018-11-10T15:35:42.456Z,18.29
2018-11-10T15:38:11.558Z,18.27
2018-11-10T15:40:40.723Z,18.27
2018-11-10T15:43:10.336Z,18.24
2018-11-10T15:45:39.461Z,18.24
2018-11-10T15:48:08.584Z,18.22
2018-11-10T15:50:37.665Z,18.20
2018-11-10T15:53:07.423Z,18.18
2018-11-10T15:55:36.463Z,18.16
2018-11-10T15:58:05.676Z,18.12
2018-11-10T16:00:34.724Z,18.11
2018-11-10T16:03:03.772Z,18.10
2018-11-10T16:05:32.859Z,18.10
2018-11-10T16:08:02.077Z,18.11
2018-11-10T16:10:32.652Z,18.11
2018-11-10T16:13:01.784Z,18.10
2018-11-10T16:15:30.912Z,18.10
2018-11-10T16:17:59.966Z,18.11
2018-11-10T16:20:29.146Z,18.09
2018-11-10T16:22:58.254Z,18.06
2018-11-10T16:25:28.057Z,18.03
2018-11-10T16:27:57.876Z,17.97
2018-11-10T16:30:26.992Z,17.93
2018-11-10T16:32:56.196Z,17.88
2018-11-10T16:35:25.384Z,17.83
2018-11-10T16:37:54.601Z,17.78
2018-11-10T16:40:23.648Z,17.74
2018-11-10T16:42:52.707Z,17.70
2018-11-10T16:45:22.073Z,17.64
2018-11-10T16:47:51.556Z,17.62
2018-11-10T16:50:20.797Z,17.60
2018-11-10T16:52:50.049Z,17.60
2018-11-10T16:55:19.283Z,17.61
2018-11-10T16:57:48.436Z,17.59
2018-11-10T17:00:18.839Z,17.60
2018-11-10T17:02:48.028Z,17.61
2018-11-10T17:05:17.168Z,17.60
2018-11-10T17:07:46.404Z,17.61
2018-11-10T17:10:16.764Z,17.62
2018-11-10T17:12:45.972Z,17.63
2018-11-10T17:15:15.172Z,17.63
2018-11-10T17:17:44.373Z,17.66
2018-11-10T17:20:15.867Z,17.67
2018-11-10T17:22:45.217Z,17.65
2018-11-10T17:25:15.012Z,17.68
2018-11-10T17:27:44.445Z,17.68
2018-11-10T17:30:15.525Z,17.70
2018-11-10T17:32:44.774Z,17.70
2018-11-10T17:35:14.105Z,17.70
2018-11-10T17:37:43.314Z,17.72
2018-11-10T17:40:13.226Z,17.71
2018-11-10T17:42:42.283Z,17.72
2018-11-10T17:45:13.684Z,17.72
2018-11-10T17:47:43.096Z,17.72
2018-11-10T17:50:13.374Z,17.72
2018-11-10T17:52:42.503Z,17.72
2018-11-10T17:55:13.132Z,17.71
2018-11-10T17:57:42.890Z,17.71
2018-11-10T18:00:12.048Z,17.71
2018-11-10T18:02:41.140Z,17.71
2018-11-10T18:05:12.582Z,17.70
2018-11-10T18:07:42.489Z,17.71
2018-11-10T18:10:13.769Z,17.71
2018-11-10T18:12:43.672Z,17.68
2018-11-10T18:15:13.773Z,17.67
2018-11-10T18:17:43.359Z,17.67
2018-11-10T18:20:13.850Z,17.64
2018-11-10T18:22:43.377Z,17.65
2018-11-10T18:25:12.604Z,17.62
2018-11-10T18:27:41.905Z,17.62
2018-11-10T18:30:12.774Z,17.61
2018-11-10T18:32:41.997Z,17.60
2018-11-10T18:35:11.555Z,17.60
2018-11-10T18:37:40.974Z,17.60
2018-11-10T18:40:10.128Z,17.57
2018-11-10T18:42:39.191Z,17.55
2018-11-10T18:45:09.750Z,17.53
2018-11-10T18:47:39.323Z,17.50
2018-11-10T18:50:11.194Z,17.47
2018-11-10T18:52:41.429Z,17.43
2018-11-10T18:55:10.869Z,17.40
2018-11-10T18:57:40.172Z,17.38
2018-11-10T19:00:11.928Z,17.34
2018-11-10T19:02:41.726Z,17.28
2018-11-10T19:05:12.287Z,17.23
2018-11-10T19:07:41.410Z,17.18
2018-11-10T19:10:12.647Z,17.15
2018-11-10T19:12:42.090Z,17.11
2018-11-10T19:15:16.227Z,17.08
2018-11-10T19:17:45.303Z,17.05
2018-11-10T19:20:14.906Z,17.02
2018-11-10T19:22:43.948Z,16.99
2018-11-10T19:25:13.852Z,16.97
2018-11-10T19:27:42.975Z,16.93
2018-11-10T19:30:19.732Z,16.92
2018-11-10T19:32:49.648Z,16.90
2018-11-10T19:35:19.443Z,16.89
2018-11-10T19:37:48.660Z,16.88
2018-11-10T19:40:17.720Z,16.87
2018-11-10T19:42:47.176Z,16.86
2018-11-10T19:45:16.514Z,16.83
2018-11-10T19:47:46.226Z,16.82
2018-11-10T19:50:16.641Z,16.81
2018-11-10T19:52:45.905Z,16.81
2018-11-10T19:55:16.339Z,16.78
2018-11-10T19:57:45.368Z,16.78
2018-11-10T20:00:18.393Z,16.76
2018-11-10T20:02:47.817Z,16.77
2018-11-10T20:05:17.240Z,16.77
2018-11-10T20:07:46.310Z,16.76
2018-11-10T20:10:15.632Z,16.76
2018-11-10T20:12:45.049Z,16.76
2018-11-10T20:15:14.952Z,16.76
2018-11-10T20:17:45.406Z,16.75
2018-11-10T20:20:15.959Z,16.74
2018-11-10T20:22:45.169Z,16.74
2018-11-10T20:25:16.359Z,16.75
2018-11-10T20:27:45.370Z,16.75
2018-11-10T20:30:16.016Z,16.75
2018-11-10T20:32:45.105Z,16.75
2018-11-10T20:35:14.475Z,16.76
2018-11-10T20:37:44.525Z,16.76
2018-11-10T20:40:14.547Z,16.76
2018-11-10T20:42:43.671Z,16.77
2018-11-10T20:45:15.393Z,16.74
2018-11-10T20:47:44.440Z,16.73
2018-11-10T20:50:14.109Z,16.76
2018-11-10T20:52:43.187Z,16.76
2018-11-10T20:55:12.859Z,16.78
2018-11-10T20:57:41.886Z,16.81
2018-11-10T21:00:13.641Z,16.81
2018-11-10T21:02:43.388Z,16.81
2018-11-10T21:05:12.932Z,16.84
2018-11-10T21:07:42.013Z,16.85
2018-11-10T21:10:13.317Z,16.86
2018-11-10T21:12:43.112Z,16.85
2018-11-10T21:15:12.592Z,16.85
2018-11-10T21:17:41.780Z,16.86
2018-11-10T21:20:11.793Z,16.85
2018-11-10T21:22:40.873Z,16.85
2018-11-10T21:25:12.059Z,16.82
2018-11-10T21:27:41.756Z,16.80
2018-11-10T21:30:12.541Z,16.77
2018-11-10T21:32:41.628Z,16.74
2018-11-10T21:35:10.744Z,16.71
2018-11-10T21:37:39.749Z,16.69
2018-11-10T21:40:13.231Z,16.69
2018-11-10T21:42:42.457Z,16.65
2018-11-10T21:45:12.577Z,16.64
2018-11-10T21:47:41.625Z,16.61
2018-11-10T21:50:12.660Z,16.58
2018-11-10T21:52:42.583Z,16.56
2018-11-10T21:55:13.468Z,16.54
2018-11-10T21:57:43.077Z,16.51
2018-11-10T22:00:14.116Z,16.51
2018-11-10T22:02:43.677Z,16.53
2018-11-10T22:05:12.958Z,16.54
2018-11-10T22:07:42.165Z,16.56
2018-11-10T22:10:13.463Z,16.60
2018-11-10T22:12:43.016Z,16.60
2018-11-10T22:15:14.714Z,16.61
2018-11-10T22:17:44.548Z,16.59
2018-11-10T22:20:14.892Z,16.58
2018-11-10T22:22:44.125Z,16.56
2018-11-10T22:25:13.686Z,16.52
2018-11-10T22:27:44.026Z,16.50
2018-11-10T22:30:16.393Z,16.47
2018-11-10T22:32:46.100Z,16.45
2018-11-10T22:35:15.187Z,16.42
2018-11-10T22:37:44.449Z,16.42
2018-11-10T22:40:14.812Z,16.40
2018-11-10T22:42:44.288Z,16.42
2018-11-10T22:45:15.104Z,16.42
2018-11-10T22:47:44.291Z,16.43
2018-11-10T22:50:16.303Z,16.41
2018-11-10T22:52:45.496Z,16.40
2018-11-10T22:55:14.677Z,16.40
2018-11-10T22:57:43.773Z,16.38
2018-11-10T23:00:19.722Z,16.36
2018-11-10T23:02:50.267Z,16.34
2018-11-10T23:05:20.034Z,16.29
2018-11-10T23:07:49.140Z,16.27
2018-11-10T23:10:18.548Z,16.25
2018-11-10T23:12:48.552Z,16.21
2018-11-10T23:15:17.640Z,16.14
2018-11-10T23:17:46.650Z,16.14
2018-11-10T23:20:17.020Z,16.11
2018-11-10T23:22:46.074Z,16.07
2018-11-10T23:25:16.377Z,16.04
2018-11-10T23:27:45.481Z,15.97
2018-11-10T23:30:17.443Z,15.92
2018-11-10T23:32:46.452Z,15.85
2018-11-10T23:35:15.629Z,15.80
2018-11-10T23:37:44.686Z,15.76
2018-11-10T23:40:14.900Z,15.72
2018-11-10T23:42:44.228Z,15.71
2018-11-10T23:45:14.065Z,15.68
2018-11-10T23:47:43.119Z,15.66
2018-11-10T23:50:13.747Z,15.64
2018-11-10T23:52:42.788Z,15.63
2018-11-10T23:55:13.632Z,15.60
2018-11-10T23:57:42.707Z,15.56
